sensor_id;sensor_type;location;lat;lon;timestamp;temperature;humidity
16901;DHT22;8567;52.540;6.434;2024-01-30T00:00:36;19.60;52.30
16901;DHT22;8567;52.540;6.434;2024-01-30T00:03:03;19.60;52.30
16901;DHT22;8567;52.540;6.434;2024-01-30T00:05:32;19.60;52.30
16901;DHT22;8567;52.540;6.434;2024-01-30T00:07:58;19.60;52.20
16901;DHT22;8567;52.540;6.434;2024-01-30T00:10:25;19.60;52.30
16901;DHT22;8567;52.540;6.434;2024-01-30T00:12:52;19.60;52.20
16901;DHT22;8567;52.540;6.434;2024-01-30T00:15:19;19.60;52.30
16901;DHT22;8567;52.540;6.434;2024-01-30T00:17:45;19.60;52.30
16901;DHT22;8567;52.540;6.434;2024-01-30T00:20:12;19.50;52.30
16901;DHT22;8567;52.540;6.434;2024-01-30T00:22:43;19.60;52.30
16901;DHT22;8567;52.540;6.434;2024-01-30T00:25:09;19.60;52.30
16901;DHT22;8567;52.540;6.434;2024-01-30T00:27:36;19.60;52.20
16901;DHT22;8567;52.540;6.434;2024-01-30T00:30:04;19.50;52.30
16901;DHT22;8567;52.540;6.434;2024-01-30T00:32:32;19.60;52.30
16901;DHT22;8567;52.540;6.434;2024-01-30T00:34:58;19.50;52.30
16901;DHT22;8567;52.540;6.434;2024-01-30T00:37:25;19.50;52.30
16901;DHT22;8567;52.540;6.434;2024-01-30T00:39:53;19.50;52.30
16901;DHT22;8567;52.540;6.434;2024-01-30T00:42:20;19.50;52.30
16901;DHT22;8567;52.540;6.434;2024-01-30T00:44:49;19.50;52.30
16901;DHT22;8567;52.540;6.434;2024-01-30T00:47:16;19.50;52.30
16901;DHT22;8567;52.540;6.434;2024-01-30T00:49:43;19.50;52.30
16901;DHT22;8567;52.540;6.434;2024-01-30T00:52:09;19.50;52.30
16901;DHT22;8567;52.540;6.434;2024-01-30T00:54:37;19.50;52.30
16901;DHT22;8567;52.540;6.434;2024-01-30T00:57:05;19.50;52.30
16901;DHT22;8567;52.540;6.434;2024-01-30T00:59:32;19.50;52.30
16901;DHT22;8567;52.540;6.434;2024-01-30T01:01:58;19.50;52.30
16901;DHT22;8567;52.540;6.434;2024-01-30T01:04:25;19.50;52.40
16901;DHT22;8567;52.540;6.434;2024-01-30T01:06:53;19.40;52.30
16901;DHT22;8567;52.540;6.434;2024-01-30T01:09:19;19.40;52.30
16901;DHT22;8567;52.540;6.434;2024-01-30T01:11:46;19.40;52.40
16901;DHT22;8567;52.540;6.434;2024-01-30T01:14:15;19.40;52.40
16901;DHT22;8567;52.540;6.434;2024-01-30T01:16:41;19.40;52.40
16901;DHT22;8567;52.540;6.434;2024-01-30T01:19:08;19.40;52.50
16901;DHT22;8567;52.540;6.434;2024-01-30T01:21:35;19.40;52.40
16901;DHT22;8567;52.540;6.434;2024-01-30T01:24:03;19.40;52.50
16901;DHT22;8567;52.540;6.434;2024-01-30T01:26:30;19.40;52.60
16901;DHT22;8567;52.540;6.434;2024-01-30T01:28:56;19.40;52.50
16901;DHT22;8567;52.540;6.434;2024-01-30T01:31:25;19.40;52.50
16901;DHT22;8567;52.540;6.434;2024-01-30T01:33:55;19.40;52.60
16901;DHT22;8567;52.540;6.434;2024-01-30T01:36:22;19.40;52.60
16901;DHT22;8567;52.540;6.434;2024-01-30T01:38:49;19.40;52.60
16901;DHT22;8567;52.540;6.434;2024-01-30T01:41:16;19.40;52.70
16901;DHT22;8567;52.540;6.434;2024-01-30T01:43:42;19.40;52.70
16901;DHT22;8567;52.540;6.434;2024-01-30T01:46:09;19.40;52.70
16901;DHT22;8567;52.540;6.434;2024-01-30T01:48:38;19.40;53.00
16901;DHT22;8567;52.540;6.434;2024-01-30T01:51:05;19.40;53.20
16901;DHT22;8567;52.540;6.434;2024-01-30T01:53:33;19.40;53.10
16901;DHT22;8567;52.540;6.434;2024-01-30T01:56:00;19.40;53.00
16901;DHT22;8567;52.540;6.434;2024-01-30T01:58:27;19.40;52.80
16901;DHT22;8567;52.540;6.434;2024-01-30T02:00:56;19.40;52.70
16901;DHT22;8567;52.540;6.434;2024-01-30T02:03:23;19.40;52.70
16901;DHT22;8567;52.540;6.434;2024-01-30T02:05:52;19.40;52.70
16901;DHT22;8567;52.540;6.434;2024-01-30T02:08:18;19.40;52.80
16901;DHT22;8567;52.540;6.434;2024-01-30T02:10:45;19.40;52.80
16901;DHT22;8567;52.540;6.434;2024-01-30T02:13:13;19.40;52.80
16901;DHT22;8567;52.540;6.434;2024-01-30T02:15:39;19.40;52.70
16901;DHT22;8567;52.540;6.434;2024-01-30T02:18:06;19.40;52.70
16901;DHT22;8567;52.540;6.434;2024-01-30T02:20:35;19.40;52.70
16901;DHT22;8567;52.540;6.434;2024-01-30T02:23:04;19.40;52.70
16901;DHT22;8567;52.540;6.434;2024-01-30T02:25:32;19.40;52.70
16901;DHT22;8567;52.540;6.434;2024-01-30T02:27:59;19.40;52.80
16901;DHT22;8567;52.540;6.434;2024-01-30T02:30:26;19.40;52.80
16901;DHT22;8567;52.540;6.434;2024-01-30T02:32:53;19.40;52.80
16901;DHT22;8567;52.540;6.434;2024-01-30T02:35:19;19.40;52.70
16901;DHT22;8567;52.540;6.434;2024-01-30T02:37:46;19.40;52.70
16901;DHT22;8567;52.540;6.434;2024-01-30T02:40:15;19.40;52.80
16901;DHT22;8567;52.540;6.434;2024-01-30T02:42:41;19.40;52.70
16901;DHT22;8567;52.540;6.434;2024-01-30T02:45:10;19.40;52.80
16901;DHT22;8567;52.540;6.434;2024-01-30T02:47:38;19.40;52.70
16901;DHT22;8567;52.540;6.434;2024-01-30T02:50:05;19.30;52.80
16901;DHT22;8567;52.540;6.434;2024-01-30T02:52:32;19.40;52.80
16901;DHT22;8567;52.540;6.434;2024-01-30T02:54:59;19.40;52.80
16901;DHT22;8567;52.540;6.434;2024-01-30T02:57:28;19.40;52.70
16901;DHT22;8567;52.540;6.434;2024-01-30T02:59:54;19.30;52.80
16901;DHT22;8567;52.540;6.434;2024-01-30T03:02:21;19.40;52.80
16901;DHT22;8567;52.540;6.434;2024-01-30T03:04:48;19.30;52.80
16901;DHT22;8567;52.540;6.434;2024-01-30T03:07:15;19.30;52.80
16901;DHT22;8567;52.540;6.434;2024-01-30T03:09:42;19.30;52.80
16901;DHT22;8567;52.540;6.434;2024-01-30T03:12:09;19.30;52.80
16901;DHT22;8567;52.540;6.434;2024-01-30T03:14:37;19.30;52.80
16901;DHT22;8567;52.540;6.434;2024-01-30T03:17:04;19.30;52.80
16901;DHT22;8567;52.540;6.434;2024-01-30T03:19:31;19.30;52.70
16901;DHT22;8567;52.540;6.434;2024-01-30T03:21:58;19.30;52.70
16901;DHT22;8567;52.540;6.434;2024-01-30T03:24:25;19.30;52.70
16901;DHT22;8567;52.540;6.434;2024-01-30T03:26:53;19.30;52.70
16901;DHT22;8567;52.540;6.434;2024-01-30T03:29:20;19.30;52.80
16901;DHT22;8567;52.540;6.434;2024-01-30T03:31:48;19.30;52.70
16901;DHT22;8567;52.540;6.434;2024-01-30T03:34:15;19.30;52.70
16901;DHT22;8567;52.540;6.434;2024-01-30T03:36:43;19.30;52.70
16901;DHT22;8567;52.540;6.434;2024-01-30T03:39:09;19.30;52.70
16901;DHT22;8567;52.540;6.434;2024-01-30T03:41:36;19.30;52.70
16901;DHT22;8567;52.540;6.434;2024-01-30T03:44:03;19.30;52.70
16901;DHT22;8567;52.540;6.434;2024-01-30T03:46:30;19.30;52.70
16901;DHT22;8567;52.540;6.434;2024-01-30T03:48:58;19.30;52.70
16901;DHT22;8567;52.540;6.434;2024-01-30T03:51:25;19.30;52.70
16901;DHT22;8567;52.540;6.434;2024-01-30T03:53:52;19.30;52.80
16901;DHT22;8567;52.540;6.434;2024-01-30T03:56:18;19.30;52.70
16901;DHT22;8567;52.540;6.434;2024-01-30T03:58:45;19.30;52.80
16901;DHT22;8567;52.540;6.434;2024-01-30T04:01:13;19.30;52.70
16901;DHT22;8567;52.540;6.434;2024-01-30T04:03:40;19.30;52.80
16901;DHT22;8567;52.540;6.434;2024-01-30T04:06:08;19.30;52.70
16901;DHT22;8567;52.540;6.434;2024-01-30T04:08:35;19.30;52.70
16901;DHT22;8567;52.540;6.434;2024-01-30T04:11:04;19.30;52.70
16901;DHT22;8567;52.540;6.434;2024-01-30T04:13:31;19.30;52.70
16901;DHT22;8567;52.540;6.434;2024-01-30T04:15:59;19.30;52.70
16901;DHT22;8567;52.540;6.434;2024-01-30T04:18:25;19.30;52.60
16901;DHT22;8567;52.540;6.434;2024-01-30T04:20:52;19.30;52.70
16901;DHT22;8567;52.540;6.434;2024-01-30T04:23:20;19.30;52.70
16901;DHT22;8567;52.540;6.434;2024-01-30T04:25:48;19.30;52.70
16901;DHT22;8567;52.540;6.434;2024-01-30T04:28:15;19.20;52.70
16901;DHT22;8567;52.540;6.434;2024-01-30T04:30:41;19.20;52.60
16901;DHT22;8567;52.540;6.434;2024-01-30T04:33:08;19.30;52.60
16901;DHT22;8567;52.540;6.434;2024-01-30T04:35:36;19.30;52.60
16901;DHT22;8567;52.540;6.434;2024-01-30T04:38:03;19.30;52.60
16901;DHT22;8567;52.540;6.434;2024-01-30T04:40:31;19.20;52.60
16901;DHT22;8567;52.540;6.434;2024-01-30T04:42:58;19.30;52.60
16901;DHT22;8567;52.540;6.434;2024-01-30T04:45:25;19.30;52.60
16901;DHT22;8567;52.540;6.434;2024-01-30T04:47:51;19.20;52.60
16901;DHT22;8567;52.540;6.434;2024-01-30T04:50:18;19.30;52.50
16901;DHT22;8567;52.540;6.434;2024-01-30T04:52:45;19.20;52.50
16901;DHT22;8567;52.540;6.434;2024-01-30T04:55:12;19.20;52.50
16901;DHT22;8567;52.540;6.434;2024-01-30T04:57:40;19.30;52.40
16901;DHT22;8567;52.540;6.434;2024-01-30T05:00:08;19.20;52.40
16901;DHT22;8567;52.540;6.434;2024-01-30T05:02:35;19.30;52.40
16901;DHT22;8567;52.540;6.434;2024-01-30T05:05:02;19.20;52.40
16901;DHT22;8567;52.540;6.434;2024-01-30T05:07:29;19.20;52.40
16901;DHT22;8567;52.540;6.434;2024-01-30T05:09:56;19.20;52.40
16901;DHT22;8567;52.540;6.434;2024-01-30T05:12:23;19.20;52.40
16901;DHT22;8567;52.540;6.434;2024-01-30T05:14:51;19.20;52.40
16901;DHT22;8567;52.540;6.434;2024-01-30T05:17:18;19.20;52.40
16901;DHT22;8567;52.540;6.434;2024-01-30T05:19:45;19.20;52.40
16901;DHT22;8567;52.540;6.434;2024-01-30T05:22:12;19.20;52.40
16901;DHT22;8567;52.540;6.434;2024-01-30T05:24:41;19.20;52.40
16901;DHT22;8567;52.540;6.434;2024-01-30T05:27:08;19.20;52.40
16901;DHT22;8567;52.540;6.434;2024-01-30T05:29:35;19.20;52.30
16901;DHT22;8567;52.540;6.434;2024-01-30T05:32:03;19.20;52.30
16901;DHT22;8567;52.540;6.434;2024-01-30T05:34:30;19.20;52.30
16901;DHT22;8567;52.540;6.434;2024-01-30T05:36:57;19.20;52.30
16901;DHT22;8567;52.540;6.434;2024-01-30T05:39:24;19.20;52.30
16901;DHT22;8567;52.540;6.434;2024-01-30T05:41:51;19.20;52.30
16901;DHT22;8567;52.540;6.434;2024-01-30T05:44:18;19.20;52.20
16901;DHT22;8567;52.540;6.434;2024-01-30T05:46:45;19.20;52.30
16901;DHT22;8567;52.540;6.434;2024-01-30T05:49:13;19.20;52.20
16901;DHT22;8567;52.540;6.434;2024-01-30T05:51:39;19.20;52.20
16901;DHT22;8567;52.540;6.434;2024-01-30T05:54:06;19.20;52.20
16901;DHT22;8567;52.540;6.434;2024-01-30T05:56:33;19.20;52.10
16901;DHT22;8567;52.540;6.434;2024-01-30T05:59:00;19.20;52.20
16901;DHT22;8567;52.540;6.434;2024-01-30T06:01:27;19.20;52.10
16901;DHT22;8567;52.540;6.434;2024-01-30T06:03:54;19.20;52.10
16901;DHT22;8567;52.540;6.434;2024-01-30T06:06:23;19.20;52.10
16901;DHT22;8567;52.540;6.434;2024-01-30T06:08:49;19.20;52.00
16901;DHT22;8567;52.540;6.434;2024-01-30T06:11:16;19.20;52.00
16901;DHT22;8567;52.540;6.434;2024-01-30T06:13:43;19.20;52.00
16901;DHT22;8567;52.540;6.434;2024-01-30T06:16:10;19.20;52.00
16901;DHT22;8567;52.540;6.434;2024-01-30T06:18:37;19.20;52.00
16901;DHT22;8567;52.540;6.434;2024-01-30T06:21:04;19.20;52.00
16901;DHT22;8567;52.540;6.434;2024-01-30T06:23:32;19.20;52.00
16901;DHT22;8567;52.540;6.434;2024-01-30T06:25:59;19.20;52.00
16901;DHT22;8567;52.540;6.434;2024-01-30T06:28:26;19.20;52.00
16901;DHT22;8567;52.540;6.434;2024-01-30T06:30:53;19.20;52.00
16901;DHT22;8567;52.540;6.434;2024-01-30T06:33:19;19.20;52.00
16901;DHT22;8567;52.540;6.434;2024-01-30T06:35:46;19.20;52.00
16901;DHT22;8567;52.540;6.434;2024-01-30T06:38:13;19.20;52.00
16901;DHT22;8567;52.540;6.434;2024-01-30T06:40:42;19.20;52.10
16901;DHT22;8567;52.540;6.434;2024-01-30T06:43:09;19.20;52.10
16901;DHT22;8567;52.540;6.434;2024-01-30T06:45:36;19.20;52.10
16901;DHT22;8567;52.540;6.434;2024-01-30T06:48:04;19.20;52.10
16901;DHT22;8567;52.540;6.434;2024-01-30T06:50:30;19.20;52.00
16901;DHT22;8567;52.540;6.434;2024-01-30T06:52:57;19.20;52.00
16901;DHT22;8567;52.540;6.434;2024-01-30T06:55:24;19.20;52.00
16901;DHT22;8567;52.540;6.434;2024-01-30T06:57:52;19.20;52.10
16901;DHT22;8567;52.540;6.434;2024-01-30T07:00:19;19.20;52.10
16901;DHT22;8567;52.540;6.434;2024-01-30T07:02:47;19.20;52.10
16901;DHT22;8567;52.540;6.434;2024-01-30T07:05:14;19.20;52.20
16901;DHT22;8567;52.540;6.434;2024-01-30T07:07:41;19.20;52.20
16901;DHT22;8567;52.540;6.434;2024-01-30T07:10:08;19.20;52.10
16901;DHT22;8567;52.540;6.434;2024-01-30T07:12:35;19.20;52.30
16901;DHT22;8567;52.540;6.434;2024-01-30T07:15:04;19.30;59.10
16901;DHT22;8567;52.540;6.434;2024-01-30T07:17:33;19.30;60.20
16901;DHT22;8567;52.540;6.434;2024-01-30T07:20:00;19.30;60.70
16901;DHT22;8567;52.540;6.434;2024-01-30T07:22:28;19.30;60.70
16901;DHT22;8567;52.540;6.434;2024-01-30T07:24:55;19.30;60.60
16901;DHT22;8567;52.540;6.434;2024-01-30T07:27:22;19.30;60.60
16901;DHT22;8567;52.540;6.434;2024-01-30T07:29:49;19.40;60.40
16901;DHT22;8567;52.540;6.434;2024-01-30T07:32:17;19.30;60.10
16901;DHT22;8567;52.540;6.434;2024-01-30T07:34:45;19.40;59.90
16901;DHT22;8567;52.540;6.434;2024-01-30T07:37:12;19.40;59.70
16901;DHT22;8567;52.540;6.434;2024-01-30T07:39:41;19.30;59.60
16901;DHT22;8567;52.540;6.434;2024-01-30T07:42:08;19.40;59.50
16901;DHT22;8567;52.540;6.434;2024-01-30T07:44:35;19.40;59.30
16901;DHT22;8567;52.540;6.434;2024-01-30T07:47:02;19.40;59.10
16901;DHT22;8567;52.540;6.434;2024-01-30T07:49:30;19.40;59.10
16901;DHT22;8567;52.540;6.434;2024-01-30T07:51:57;19.40;59.10
16901;DHT22;8567;52.540;6.434;2024-01-30T07:54:32;19.40;58.90
16901;DHT22;8567;52.540;6.434;2024-01-30T07:57:00;19.30;58.80
16901;DHT22;8567;52.540;6.434;2024-01-30T07:59:27;19.40;58.40
16901;DHT22;8567;52.540;6.434;2024-01-30T08:02:03;19.40;58.30
16901;DHT22;8567;52.540;6.434;2024-01-30T08:04:31;19.40;58.30
16901;DHT22;8567;52.540;6.434;2024-01-30T08:06:58;19.40;58.30
16901;DHT22;8567;52.540;6.434;2024-01-30T08:09:25;19.40;58.20
16901;DHT22;8567;52.540;6.434;2024-01-30T08:11:52;19.40;58.10
16901;DHT22;8567;52.540;6.434;2024-01-30T08:14:19;19.40;58.10
16901;DHT22;8567;52.540;6.434;2024-01-30T08:16:45;19.40;58.00
16901;DHT22;8567;52.540;6.434;2024-01-30T08:19:14;19.40;58.00
16901;DHT22;8567;52.540;6.434;2024-01-30T08:21:42;19.40;58.00
16901;DHT22;8567;52.540;6.434;2024-01-30T08:24:09;19.40;57.90
16901;DHT22;8567;52.540;6.434;2024-01-30T08:26:35;19.40;57.90
16901;DHT22;8567;52.540;6.434;2024-01-30T08:29:02;19.40;57.90
16901;DHT22;8567;52.540;6.434;2024-01-30T08:31:29;19.40;57.90
16901;DHT22;8567;52.540;6.434;2024-01-30T08:33:56;19.40;57.90
16901;DHT22;8567;52.540;6.434;2024-01-30T08:36:23;19.40;57.80
16901;DHT22;8567;52.540;6.434;2024-01-30T08:38:51;19.40;57.90
16901;DHT22;8567;52.540;6.434;2024-01-30T08:41:18;19.50;57.90
16901;DHT22;8567;52.540;6.434;2024-01-30T08:43:45;19.50;57.90
16901;DHT22;8567;52.540;6.434;2024-01-30T08:46:12;19.50;57.80
16901;DHT22;8567;52.540;6.434;2024-01-30T08:48:39;19.50;57.80
16901;DHT22;8567;52.540;6.434;2024-01-30T08:51:06;19.50;57.80
16901;DHT22;8567;52.540;6.434;2024-01-30T08:53:34;19.50;57.80
16901;DHT22;8567;52.540;6.434;2024-01-30T08:56:04;19.50;57.80
16901;DHT22;8567;52.540;6.434;2024-01-30T08:58:32;19.50;57.80
16901;DHT22;8567;52.540;6.434;2024-01-30T09:00:59;19.60;58.00
16901;DHT22;8567;52.540;6.434;2024-01-30T09:03:26;19.50;57.90
16901;DHT22;8567;52.540;6.434;2024-01-30T09:05:53;19.60;57.90
16901;DHT22;8567;52.540;6.434;2024-01-30T09:08:19;19.60;57.80
16901;DHT22;8567;52.540;6.434;2024-01-30T09:10:46;19.60;57.70
16901;DHT22;8567;52.540;6.434;2024-01-30T09:13:15;19.60;57.60
16901;DHT22;8567;52.540;6.434;2024-01-30T09:15:42;19.60;57.60
16901;DHT22;8567;52.540;6.434;2024-01-30T09:18:09;19.60;57.60
16901;DHT22;8567;52.540;6.434;2024-01-30T09:20:36;19.60;57.60
16901;DHT22;8567;52.540;6.434;2024-01-30T09:23:03;19.60;57.60
16901;DHT22;8567;52.540;6.434;2024-01-30T09:25:30;19.60;57.60
16901;DHT22;8567;52.540;6.434;2024-01-30T09:27:57;19.70;57.70
16901;DHT22;8567;52.540;6.434;2024-01-30T09:30:25;19.60;57.60
16901;DHT22;8567;52.540;6.434;2024-01-30T09:32:52;19.70;57.70
16901;DHT22;8567;52.540;6.434;2024-01-30T09:35:18;19.70;57.60
16901;DHT22;8567;52.540;6.434;2024-01-30T09:37:45;19.70;57.60
16901;DHT22;8567;52.540;6.434;2024-01-30T09:40:12;19.70;57.30
16901;DHT22;8567;52.540;6.434;2024-01-30T09:42:40;19.70;57.70
16901;DHT22;8567;52.540;6.434;2024-01-30T09:45:10;19.70;57.80
16901;DHT22;8567;52.540;6.434;2024-01-30T09:47:42;19.70;57.60
16901;DHT22;8567;52.540;6.434;2024-01-30T09:50:09;19.70;57.50
16901;DHT22;8567;52.540;6.434;2024-01-30T09:52:37;19.70;57.40
16901;DHT22;8567;52.540;6.434;2024-01-30T09:55:06;19.70;57.20
16901;DHT22;8567;52.540;6.434;2024-01-30T09:57:33;19.70;57.10
16901;DHT22;8567;52.540;6.434;2024-01-30T10:00:00;19.70;56.90
16901;DHT22;8567;52.540;6.434;2024-01-30T10:02:27;19.60;56.20
16901;DHT22;8567;52.540;6.434;2024-01-30T10:04:55;19.60;56.70
16901;DHT22;8567;52.540;6.434;2024-01-30T10:07:22;19.60;56.70
16901;DHT22;8567;52.540;6.434;2024-01-30T10:09:49;19.60;56.70
16901;DHT22;8567;52.540;6.434;2024-01-30T10:12:15;19.60;56.90
16901;DHT22;8567;52.540;6.434;2024-01-30T10:14:43;19.60;56.70
16901;DHT22;8567;52.540;6.434;2024-01-30T10:17:11;19.60;57.00
16901;DHT22;8567;52.540;6.434;2024-01-30T10:19:39;19.60;56.30
16901;DHT22;8567;52.540;6.434;2024-01-30T10:22:09;19.60;56.70
16901;DHT22;8567;52.540;6.434;2024-01-30T10:24:36;19.60;57.80
16901;DHT22;8567;52.540;6.434;2024-01-30T10:27:05;19.60;58.20
16901;DHT22;8567;52.540;6.434;2024-01-30T10:29:32;19.70;58.30
16901;DHT22;8567;52.540;6.434;2024-01-30T10:31:59;19.60;58.50
16901;DHT22;8567;52.540;6.434;2024-01-30T10:34:26;19.70;58.80
16901;DHT22;8567;52.540;6.434;2024-01-30T10:37:00;19.70;59.00
16901;DHT22;8567;52.540;6.434;2024-01-30T10:39:38;19.70;59.50
16901;DHT22;8567;52.540;6.434;2024-01-30T10:42:05;19.70;59.70
16901;DHT22;8567;52.540;6.434;2024-01-30T10:44:43;19.70;60.00
16901;DHT22;8567;52.540;6.434;2024-01-30T10:47:12;19.70;60.50
16901;DHT22;8567;52.540;6.434;2024-01-30T10:49:41;19.70;60.80
16901;DHT22;8567;52.540;6.434;2024-01-30T10:52:09;19.70;61.00
16901;DHT22;8567;52.540;6.434;2024-01-30T10:54:39;19.70;60.80
16901;DHT22;8567;52.540;6.434;2024-01-30T10:57:07;19.80;61.00
16901;DHT22;8567;52.540;6.434;2024-01-30T10:59:36;19.80;61.00
16901;DHT22;8567;52.540;6.434;2024-01-30T11:02:03;19.80;62.90
16901;DHT22;8567;52.540;6.434;2024-01-30T11:04:36;20.00;65.00
16901;DHT22;8567;52.540;6.434;2024-01-30T11:07:03;20.10;65.20
16901;DHT22;8567;52.540;6.434;2024-01-30T11:09:47;20.10;64.40
16901;DHT22;8567;52.540;6.434;2024-01-30T11:12:14;20.10;64.20
16901;DHT22;8567;52.540;6.434;2024-01-30T11:14:41;20.00;63.30
16901;DHT22;8567;52.540;6.434;2024-01-30T11:17:09;20.00;62.50
16901;DHT22;8567;52.540;6.434;2024-01-30T11:19:38;20.00;61.90
16901;DHT22;8567;52.540;6.434;2024-01-30T11:22:06;19.90;61.50
16901;DHT22;8567;52.540;6.434;2024-01-30T11:24:40;19.90;61.40
16901;DHT22;8567;52.540;6.434;2024-01-30T11:27:08;19.90;61.00
16901;DHT22;8567;52.540;6.434;2024-01-30T11:29:35;19.90;60.60
16901;DHT22;8567;52.540;6.434;2024-01-30T11:32:03;19.90;60.20
16901;DHT22;8567;52.540;6.434;2024-01-30T11:34:30;19.90;60.20
16901;DHT22;8567;52.540;6.434;2024-01-30T11:37:02;19.90;60.20
16901;DHT22;8567;52.540;6.434;2024-01-30T11:39:29;19.80;59.80
16901;DHT22;8567;52.540;6.434;2024-01-30T11:41:59;19.80;59.40
16901;DHT22;8567;52.540;6.434;2024-01-30T11:44:26;19.80;59.40
16901;DHT22;8567;52.540;6.434;2024-01-30T11:46:52;19.80;59.20
16901;DHT22;8567;52.540;6.434;2024-01-30T11:49:19;19.80;58.40
16901;DHT22;8567;52.540;6.434;2024-01-30T11:51:46;19.80;58.30
16901;DHT22;8567;52.540;6.434;2024-01-30T11:54:14;19.80;58.20
16901;DHT22;8567;52.540;6.434;2024-01-30T11:56:42;19.80;58.60
16901;DHT22;8567;52.540;6.434;2024-01-30T11:59:10;19.80;58.40
16901;DHT22;8567;52.540;6.434;2024-01-30T12:01:38;19.80;58.50
16901;DHT22;8567;52.540;6.434;2024-01-30T12:04:04;19.80;57.90
16901;DHT22;8567;52.540;6.434;2024-01-30T12:06:34;19.80;57.70
16901;DHT22;8567;52.540;6.434;2024-01-30T12:09:02;19.80;58.00
16901;DHT22;8567;52.540;6.434;2024-01-30T12:11:30;19.80;58.60
16901;DHT22;8567;52.540;6.434;2024-01-30T12:13:57;19.80;58.20
16901;DHT22;8567;52.540;6.434;2024-01-30T12:16:25;19.80;58.30
16901;DHT22;8567;52.540;6.434;2024-01-30T12:18:59;19.80;58.20
16901;DHT22;8567;52.540;6.434;2024-01-30T12:21:27;19.80;58.20
16901;DHT22;8567;52.540;6.434;2024-01-30T12:23:54;19.70;58.00
16901;DHT22;8567;52.540;6.434;2024-01-30T12:26:21;19.70;58.00
16901;DHT22;8567;52.540;6.434;2024-01-30T12:28:48;19.70;57.90
16901;DHT22;8567;52.540;6.434;2024-01-30T12:31:16;19.70;57.90
16901;DHT22;8567;52.540;6.434;2024-01-30T12:33:44;19.70;58.10
16901;DHT22;8567;52.540;6.434;2024-01-30T12:36:12;19.70;57.90
16901;DHT22;8567;52.540;6.434;2024-01-30T12:38:38;19.70;57.90
16901;DHT22;8567;52.540;6.434;2024-01-30T12:41:07;19.70;57.70
16901;DHT22;8567;52.540;6.434;2024-01-30T12:43:35;19.70;57.70
16901;DHT22;8567;52.540;6.434;2024-01-30T12:46:03;19.70;57.40
16901;DHT22;8567;52.540;6.434;2024-01-30T12:48:29;19.70;57.50
16901;DHT22;8567;52.540;6.434;2024-01-30T12:50:58;19.70;57.50
16901;DHT22;8567;52.540;6.434;2024-01-30T12:53:25;19.70;57.10
16901;DHT22;8567;52.540;6.434;2024-01-30T12:55:52;19.70;57.10
16901;DHT22;8567;52.540;6.434;2024-01-30T12:58:19;19.70;56.60
16901;DHT22;8567;52.540;6.434;2024-01-30T13:00:47;19.60;56.60
16901;DHT22;8567;52.540;6.434;2024-01-30T13:03:14;19.70;56.60
16901;DHT22;8567;52.540;6.434;2024-01-30T13:05:40;19.70;56.50
16901;DHT22;8567;52.540;6.434;2024-01-30T13:08:09;19.60;56.60
16901;DHT22;8567;52.540;6.434;2024-01-30T13:10:35;19.70;56.40
16901;DHT22;8567;52.540;6.434;2024-01-30T13:13:02;19.60;56.30
16901;DHT22;8567;52.540;6.434;2024-01-30T13:15:29;19.60;56.50
16901;DHT22;8567;52.540;6.434;2024-01-30T13:17:56;19.60;56.20
16901;DHT22;8567;52.540;6.434;2024-01-30T13:20:23;19.60;56.30
16901;DHT22;8567;52.540;6.434;2024-01-30T13:22:49;19.60;55.50
16901;DHT22;8567;52.540;6.434;2024-01-30T13:25:18;19.60;55.70
16901;DHT22;8567;52.540;6.434;2024-01-30T13:27:44;19.60;55.90
16901;DHT22;8567;52.540;6.434;2024-01-30T13:30:11;19.60;56.00
16901;DHT22;8567;52.540;6.434;2024-01-30T13:32:39;19.60;55.90
16901;DHT22;8567;52.540;6.434;2024-01-30T13:35:07;19.60;55.90
16901;DHT22;8567;52.540;6.434;2024-01-30T13:37:34;19.60;56.00
16901;DHT22;8567;52.540;6.434;2024-01-30T13:40:01;19.60;55.80
16901;DHT22;8567;52.540;6.434;2024-01-30T13:42:29;19.50;55.30
16901;DHT22;8567;52.540;6.434;2024-01-30T13:44:56;19.50;55.00
16901;DHT22;8567;52.540;6.434;2024-01-30T13:47:23;19.50;55.10
16901;DHT22;8567;52.540;6.434;2024-01-30T13:49:50;19.60;55.20
16901;DHT22;8567;52.540;6.434;2024-01-30T13:52:18;19.60;55.20
16901;DHT22;8567;52.540;6.434;2024-01-30T13:54:45;19.50;55.40
16901;DHT22;8567;52.540;6.434;2024-01-30T13:57:12;19.50;55.20
16901;DHT22;8567;52.540;6.434;2024-01-30T13:59:40;19.50;55.30
16901;DHT22;8567;52.540;6.434;2024-01-30T14:02:06;19.50;55.20
16901;DHT22;8567;52.540;6.434;2024-01-30T14:04:35;19.50;55.20
16901;DHT22;8567;52.540;6.434;2024-01-30T14:07:03;19.50;55.00
16901;DHT22;8567;52.540;6.434;2024-01-30T14:09:29;19.50;54.90
16901;DHT22;8567;52.540;6.434;2024-01-30T14:11:57;19.50;54.60
16901;DHT22;8567;52.540;6.434;2024-01-30T14:14:25;19.50;54.80
16901;DHT22;8567;52.540;6.434;2024-01-30T14:16:53;19.50;54.90
16901;DHT22;8567;52.540;6.434;2024-01-30T14:19:21;19.50;54.60
16901;DHT22;8567;52.540;6.434;2024-01-30T14:21:48;19.50;54.50
16901;DHT22;8567;52.540;6.434;2024-01-30T14:24:15;19.40;54.40
16901;DHT22;8567;52.540;6.434;2024-01-30T14:26:42;19.40;54.00
16901;DHT22;8567;52.540;6.434;2024-01-30T14:29:09;19.50;54.20
16901;DHT22;8567;52.540;6.434;2024-01-30T14:31:36;19.40;54.30
16901;DHT22;8567;52.540;6.434;2024-01-30T14:34:04;19.50;54.10
16901;DHT22;8567;52.540;6.434;2024-01-30T14:36:31;19.40;54.30
16901;DHT22;8567;52.540;6.434;2024-01-30T14:38:58;19.40;54.30
16901;DHT22;8567;52.540;6.434;2024-01-30T14:41:25;19.40;54.30
16901;DHT22;8567;52.540;6.434;2024-01-30T14:43:52;19.40;54.40
16901;DHT22;8567;52.540;6.434;2024-01-30T14:46:19;19.40;54.00
16901;DHT22;8567;52.540;6.434;2024-01-30T14:48:46;19.40;53.80
16901;DHT22;8567;52.540;6.434;2024-01-30T14:51:14;19.40;53.90
16901;DHT22;8567;52.540;6.434;2024-01-30T14:53:41;19.40;53.80
16901;DHT22;8567;52.540;6.434;2024-01-30T14:56:08;19.40;53.80
16901;DHT22;8567;52.540;6.434;2024-01-30T14:58:35;19.40;53.80
16901;DHT22;8567;52.540;6.434;2024-01-30T15:01:02;19.40;53.50
16901;DHT22;8567;52.540;6.434;2024-01-30T15:03:29;19.40;53.40
16901;DHT22;8567;52.540;6.434;2024-01-30T15:05:56;19.30;53.40
16901;DHT22;8567;52.540;6.434;2024-01-30T15:08:25;19.40;53.50
16901;DHT22;8567;52.540;6.434;2024-01-30T15:10:51;19.30;53.50
16901;DHT22;8567;52.540;6.434;2024-01-30T15:13:19;19.30;53.40
16901;DHT22;8567;52.540;6.434;2024-01-30T15:15:46;19.30;53.30
16901;DHT22;8567;52.540;6.434;2024-01-30T15:18:12;19.30;53.20
16901;DHT22;8567;52.540;6.434;2024-01-30T15:20:39;19.30;53.00
16901;DHT22;8567;52.540;6.434;2024-01-30T15:23:06;19.30;53.10
16901;DHT22;8567;52.540;6.434;2024-01-30T15:25:34;19.30;53.10
16901;DHT22;8567;52.540;6.434;2024-01-30T15:28:01;19.30;52.90
16901;DHT22;8567;52.540;6.434;2024-01-30T15:30:28;19.30;52.90
16901;DHT22;8567;52.540;6.434;2024-01-30T15:32:55;19.30;53.00
16901;DHT22;8567;52.540;6.434;2024-01-30T15:35:21;19.30;52.90
16901;DHT22;8567;52.540;6.434;2024-01-30T15:37:48;19.30;52.90
16901;DHT22;8567;52.540;6.434;2024-01-30T15:40:15;19.30;53.20
16901;DHT22;8567;52.540;6.434;2024-01-30T15:42:43;19.30;53.00
16901;DHT22;8567;52.540;6.434;2024-01-30T15:45:10;19.30;53.00